createdAt,value
2022-12-11T00:01:16.005Z,1.80
2022-12-11T00:04:21.574Z,1.60
2022-12-11T00:07:26.789Z,1.75
2022-12-11T00:10:34.637Z,1.80
2022-12-11T00:13:43.540Z,1.60
2022-12-11T00:16:48.342Z,1.87
2022-12-11T00:19:51.325Z,1.50
2022-12-11T00:22:54.550Z,1.95
2022-12-11T00:25:57.443Z,1.77
2022-12-11T00:29:00.304Z,2.22
2022-12-11T00:32:03.285Z,1.65
2022-12-11T00:35:06.705Z,1.33
2022-12-11T00:38:18.546Z,2.53
2022-12-11T00:41:22.026Z,1.67
2022-12-11T00:44:25.314Z,1.60
2022-12-11T00:47:28.986Z,2.67
2022-12-11T00:50:31.762Z,1.87
2022-12-11T00:53:34.867Z,2.20
2022-12-11T00:56:37.923Z,2.08
2022-12-11T00:59:41.179Z,1.65
2022-12-11T01:02:44.261Z,1.50
2022-12-11T01:05:55.690Z,2.15
2022-12-11T01:09:16.780Z,1.98
2022-12-11T01:12:19.695Z,1.77
2022-12-11T01:15:24.534Z,1.67
2022-12-11T01:18:27.955Z,1.67
2022-12-11T01:21:30.855Z,1.40
2022-12-11T01:24:33.858Z,1.45
2022-12-11T01:27:37.646Z,2.37
2022-12-11T01:30:44.695Z,2.28
2022-12-11T01:33:47.302Z,1.80
2022-12-11T01:36:52.340Z,2.85
2022-12-11T01:39:55.503Z,1.60
2022-12-11T01:42:59.791Z,1.80
2022-12-11T01:46:02.994Z,1.80
2022-12-11T01:49:12.839Z,1.35
2022-12-11T01:52:21.334Z,1.65
2022-12-11T01:55:24.745Z,1.77
2022-12-11T01:58:32.823Z,1.73
2022-12-11T02:01:42.512Z,1.02
2022-12-11T02:04:46.506Z,1.60
2022-12-11T02:08:08.511Z,2.12
2022-12-11T02:11:20.553Z,1.15
2022-12-11T02:14:43.854Z,1.60
2022-12-11T02:18:23.451Z,1.15
2022-12-11T02:21:34.030Z,1.75
2022-12-11T02:25:11.676Z,1.37
2022-12-11T02:28:24.488Z,1.23
2022-12-11T02:31:34.680Z,1.20
2022-12-11T02:35:06.276Z,1.40
2022-12-11T02:38:15.508Z,1.55
2022-12-11T02:41:21.694Z,1.00
2022-12-11T02:44:30.688Z,1.03
2022-12-11T02:47:33.905Z,1.30
2022-12-11T02:50:42.555Z,0.90
2022-12-11T02:53:47.806Z,0.70
2022-12-11T02:56:57.352Z,0.85
2022-12-11T03:00:00.539Z,0.70
2022-12-11T03:03:04.517Z,0.70
2022-12-11T03:06:12.292Z,1.05
2022-12-11T03:09:15.405Z,0.80
2022-12-11T03:12:29.329Z,0.40
2022-12-11T03:15:54.753Z,0.73
2022-12-11T03:19:06.598Z,0.77
2022-12-11T03:22:17.470Z,1.00
2022-12-11T03:25:29.693Z,0.95
2022-12-11T03:28:41.669Z,0.85
2022-12-11T03:31:59.929Z,1.08
2022-12-11T03:35:24.246Z,0.60
2022-12-11T03:38:50.099Z,0.98
2022-12-11T03:41:54.743Z,0.80
2022-12-11T03:45:00.361Z,0.40
2022-12-11T03:48:03.399Z,0.57
2022-12-11T03:51:09.758Z,0.60
2022-12-11T03:54:12.991Z,0.47
2022-12-11T03:57:21.407Z,0.57
2022-12-11T04:00:24.661Z,0.82
2022-12-11T04:03:32.598Z,0.95
2022-12-11T04:06:35.390Z,0.82
2022-12-11T04:09:38.557Z,1.10
2022-12-11T04:12:41.091Z,1.00
2022-12-11T04:15:50.336Z,0.47
2022-12-11T04:19:17.430Z,0.77
2022-12-11T04:22:39.248Z,0.80
2022-12-11T04:25:42.202Z,0.80
2022-12-11T04:28:52.063Z,1.02
2022-12-11T04:31:57.153Z,1.20
2022-12-11T04:35:02.048Z,1.05
2022-12-11T04:38:04.630Z,0.98
2022-12-11T04:41:13.965Z,1.08
2022-12-11T04:44:18.975Z,1.30
2022-12-11T04:47:24.268Z,1.15
2022-12-11T04:50:29.486Z,1.50
2022-12-11T04:53:32.555Z,1.13
2022-12-11T04:56:35.248Z,1.37
2022-12-11T04:59:38.279Z,0.95
2022-12-11T05:02:42.697Z,1.20
2022-12-11T05:05:52.484Z,1.95
2022-12-11T05:09:01.040Z,1.50
2022-12-11T05:12:04.183Z,1.37
2022-12-11T05:15:07.072Z,1.70
2022-12-11T05:18:10.054Z,1.60
2022-12-11T05:21:14.566Z,1.50
2022-12-11T05:24:17.727Z,1.83
2022-12-11T05:27:22.293Z,1.35
2022-12-11T05:30:25.082Z,1.55
2022-12-11T05:33:28.594Z,1.60
2022-12-11T05:36:37.285Z,1.52
2022-12-11T05:39:44.670Z,1.60
2022-12-11T05:42:50.123Z,1.23
2022-12-11T05:45:52.602Z,1.90
2022-12-11T05:49:02.017Z,2.10
2022-12-11T05:52:04.957Z,1.42
2022-12-11T05:55:10.659Z,1.62
2022-12-11T05:58:13.291Z,1.95
2022-12-11T06:01:20.754Z,1.42
2022-12-11T06:04:23.511Z,1.17
2022-12-11T06:07:26.165Z,1.67
2022-12-11T06:10:28.975Z,1.08
2022-12-11T06:13:31.674Z,1.10
2022-12-11T06:16:35.006Z,1.33
2022-12-11T06:19:39.624Z,1.35
2022-12-11T06:22:42.352Z,1.62
2022-12-11T06:25:45.107Z,2.03
2022-12-11T06:28:48.865Z,1.52
2022-12-11T06:31:53.640Z,1.67
2022-12-11T06:34:56.827Z,1.10
2022-12-11T06:37:59.706Z,1.50
2022-12-11T06:41:04.900Z,1.33
2022-12-11T06:44:07.317Z,1.40
2022-12-11T06:47:12.477Z,1.00
2022-12-11T06:50:15.075Z,0.90
2022-12-11T06:53:19.851Z,1.80
2022-12-11T06:56:23.330Z,1.25
2022-12-11T06:59:26.408Z,1.55
2022-12-11T07:02:31.897Z,1.48
2022-12-11T07:05:37.338Z,1.33
2022-12-11T07:08:39.970Z,1.75
2022-12-11T07:11:42.598Z,1.58
2022-12-11T07:14:47.498Z,2.15
2022-12-11T07:17:50.243Z,1.23
2022-12-11T07:20:53.486Z,1.52
2022-12-11T07:23:56.243Z,1.12
2022-12-11T07:27:01.095Z,1.70
2022-12-11T07:30:04.329Z,1.75
2022-12-11T07:33:08.959Z,0.98
2022-12-11T07:36:16.141Z,1.60
2022-12-11T07:39:18.840Z,0.95
2022-12-11T07:42:21.573Z,1.23
2022-12-11T07:45:26.324Z,1.12
2022-12-11T07:48:31.152Z,2.10
2022-12-11T07:51:38.674Z,0.98
2022-12-11T07:54:41.573Z,1.02
2022-12-11T07:57:47.028Z,1.40
2022-12-11T08:00:53.621Z,0.83
2022-12-11T08:03:58.007Z,0.93
2022-12-11T08:07:03.764Z,0.65
2022-12-11T08:10:11.227Z,1.12
2022-12-11T08:13:13.577Z,1.00
2022-12-11T08:16:18.945Z,0.95
2022-12-11T08:19:25.929Z,1.35
2022-12-11T08:22:45.269Z,0.90
2022-12-11T08:25:52.182Z,1.15
2022-12-11T08:29:01.394Z,1.27
2022-12-11T08:32:10.538Z,1.45
2022-12-11T08:35:15.628Z,1.67
2022-12-11T08:38:23.660Z,1.00
2022-12-11T08:41:32.866Z,0.77
2022-12-11T08:44:35.597Z,1.02
2022-12-11T08:47:38.674Z,1.17
2022-12-11T08:50:41.324Z,1.65
2022-12-11T08:53:44.854Z,1.27
2022-12-11T08:56:47.951Z,1.67
2022-12-11T08:59:50.855Z,0.82
2022-12-11T09:02:53.994Z,1.17
2022-12-11T09:05:57.737Z,1.00
2022-12-11T09:09:01.454Z,0.90
2022-12-11T09:12:04.702Z,1.25
2022-12-11T09:15:08.489Z,1.77
2022-12-11T09:18:11.642Z,1.55
2022-12-11T09:21:17.465Z,1.08
2022-12-11T09:24:20.344Z,0.75
2022-12-11T09:27:23.810Z,0.80
2022-12-11T09:30:26.713Z,0.95
2022-12-11T09:33:29.150Z,1.30
2022-12-11T09:36:32.483Z,0.85
2022-12-11T09:39:35.495Z,1.23
2022-12-11T09:43:00.482Z,0.62
2022-12-11T09:46:09.401Z,1.02
2022-12-11T09:49:35.352Z,1.05
2022-12-11T09:52:40.375Z,0.75
2022-12-11T09:56:03.632Z,0.85
2022-12-11T09:59:06.306Z,0.77
2022-12-11T10:02:34.485Z,0.70
2022-12-11T10:06:07.830Z,0.82
2022-12-11T10:09:37.892Z,0.98
2022-12-11T10:13:05.127Z,0.70
2022-12-11T10:16:35.765Z,0.77
2022-12-11T10:19:41.126Z,1.10
2022-12-11T10:22:44.733Z,1.30
2022-12-11T10:25:54.008Z,1.42
2022-12-11T10:29:00.610Z,0.80
2022-12-11T10:32:07.057Z,0.98
2022-12-11T10:35:26.037Z,0.70
2022-12-11T10:38:46.887Z,1.10
2022-12-11T10:42:00.403Z,0.68
2022-12-11T10:48:11.432Z,1.00
2022-12-11T10:51:14.498Z,0.98
2022-12-11T10:54:39.413Z,1.10
2022-12-11T10:57:45.820Z,0.95
2022-12-11T11:01:11.345Z,1.40
2022-12-11T11:04:19.024Z,0.85
2022-12-11T11:07:25.284Z,1.08
2022-12-11T11:10:28.422Z,1.00
2022-12-11T11:13:32.255Z,1.73
2022-12-11T11:16:37.311Z,1.25
2022-12-11T11:19:39.775Z,1.10
2022-12-11T11:23:05.223Z,0.85
2022-12-11T11:26:09.303Z,0.93
2022-12-11T11:29:34.262Z,1.23
2022-12-11T11:33:02.287Z,1.62
2022-12-11T11:36:08.460Z,1.02
2022-12-11T11:39:13.622Z,1.17
2022-12-11T11:42:47.229Z,1.08
2022-12-11T11:46:06.287Z,1.35
2022-12-11T11:49:47.678Z,1.00
2022-12-11T11:53:02.409Z,0.98
2022-12-11T11:56:23.498Z,0.80
2022-12-11T11:59:40.278Z,1.40
2022-12-11T12:05:53.158Z,0.88
2022-12-11T12:09:13.084Z,1.02
2022-12-11T12:12:33.835Z,1.52
2022-12-11T12:15:55.109Z,1.17
2022-12-11T12:19:11.854Z,1.20
2022-12-11T12:22:21.033Z,0.90
2022-12-11T12:25:47.326Z,1.35
2022-12-11T12:29:09.072Z,1.75
2022-12-11T12:32:27.377Z,1.70
2022-12-11T12:35:38.274Z,1.10
2022-12-11T12:39:11.085Z,1.15
2022-12-11T12:42:49.835Z,1.02
2022-12-11T12:46:29.768Z,1.27
2022-12-11T12:49:44.835Z,0.93
2022-12-11T12:52:53.482Z,1.23
2022-12-11T12:56:00.194Z,1.17
2022-12-11T12:59:04.050Z,1.50
2022-12-11T13:02:17.423Z,1.87
2022-12-11T13:05:29.570Z,1.25
2022-12-11T13:08:41.258Z,1.80
2022-12-11T13:11:45.727Z,1.12
2022-12-11T13:14:58.996Z,1.30
2022-12-11T13:18:05.393Z,1.30
2022-12-11T13:21:33.920Z,1.48
2022-12-11T13:24:47.002Z,0.95
2022-12-11T13:27:53.919Z,1.98
2022-12-11T13:31:05.255Z,1.98
2022-12-11T13:34:16.666Z,1.20
2022-12-11T13:37:26.151Z,1.95
2022-12-11T13:40:34.058Z,1.15
2022-12-11T13:43:40.573Z,0.80
2022-12-11T13:46:44.186Z,1.98
2022-12-11T13:49:51.291Z,2.35
2022-12-11T13:52:59.924Z,1.52
2022-12-11T13:56:07.934Z,2.03
2022-12-11T13:59:49.897Z,2.35
2022-12-11T14:02:59.006Z,1.40
2022-12-11T14:06:04.506Z,1.23
2022-12-11T14:09:10.761Z,1.73
2022-12-11T14:12:20.502Z,2.20
2022-12-11T14:15:26.185Z,1.83
2022-12-11T14:18:33.980Z,1.85
2022-12-11T14:21:36.892Z,2.15
2022-12-11T14:24:50.950Z,1.50
2022-12-11T14:27:56.291Z,2.00
2022-12-11T14:31:01.157Z,1.85
2022-12-11T14:34:08.867Z,2.10
2022-12-11T14:37:18.343Z,2.05
2022-12-11T14:40:31.718Z,2.03
2022-12-11T14:43:46.725Z,2.00
2022-12-11T14:46:53.627Z,2.33
2022-12-11T14:50:08.063Z,1.48
2022-12-11T14:53:18.776Z,2.25
2022-12-11T14:56:27.666Z,1.65
2022-12-11T14:59:40.949Z,2.78
2022-12-11T15:02:57.853Z,2.30
2022-12-11T15:06:03.426Z,2.15
2022-12-11T15:09:42.693Z,2.25
2022-12-11T15:12:46.023Z,1.77
2022-12-11T15:15:51.409Z,2.50
2022-12-11T15:18:55.872Z,2.25
2022-12-11T15:22:09.845Z,1.95
2022-12-11T15:25:28.386Z,1.70
2022-12-11T15:28:38.557Z,2.62
2022-12-11T15:31:40.941Z,1.98
2022-12-11T15:34:49.028Z,1.73
2022-12-11T15:38:00.799Z,2.40
2022-12-11T15:41:07.094Z,2.62
2022-12-11T15:44:20.562Z,2.87
2022-12-11T15:47:28.580Z,1.92
2022-12-11T15:50:35.758Z,3.00
2022-12-11T15:53:38.600Z,1.90
2022-12-11T15:56:43.691Z,1.27
2022-12-11T15:59:49.229Z,1.73
2022-12-11T16:02:52.140Z,2.47
2022-12-11T16:06:02.336Z,2.00
2022-12-11T16:09:09.500Z,2.08
2022-12-11T16:12:13.915Z,1.75
2022-12-11T16:15:23.045Z,1.58
2022-12-11T16:18:26.595Z,1.85
2022-12-11T16:21:28.932Z,2.55
2022-12-11T16:24:34.664Z,1.50
2022-12-11T16:27:39.285Z,2.15
2022-12-11T16:30:43.848Z,1.83
2022-12-11T16:33:49.336Z,1.87
2022-12-11T16:36:52.433Z,3.10
2022-12-11T16:39:54.893Z,2.00
2022-12-11T16:43:00.645Z,1.80
2022-12-11T16:46:04.485Z,1.87
2022-12-11T16:49:07.881Z,2.08
2022-12-11T16:52:10.800Z,2.10
2022-12-11T16:55:14.720Z,2.30
2022-12-11T16:58:23.060Z,2.12
2022-12-11T17:01:28.530Z,2.08
2022-12-11T17:04:36.074Z,1.62
2022-12-11T17:07:39.019Z,1.55
2022-12-11T17:10:42.956Z,1.52
2022-12-11T17:13:58.443Z,2.12
2022-12-11T17:17:01.759Z,1.83
2022-12-11T17:20:05.037Z,1.30
2022-12-11T17:23:10.418Z,2.28
2022-12-11T17:26:20.458Z,1.33
2022-12-11T17:29:23.275Z,1.73
2022-12-11T17:32:26.353Z,1.40
2022-12-11T17:35:29.158Z,2.10
2022-12-11T17:38:33.895Z,2.72
2022-12-11T17:41:38.711Z,1.67
2022-12-11T17:44:42.405Z,1.65
2022-12-11T17:47:48.572Z,1.33
2022-12-11T17:50:56.937Z,1.30
2022-12-11T17:54:20.247Z,1.33
2022-12-11T17:57:23.443Z,2.12
2022-12-11T18:00:31.579Z,2.22
2022-12-11T18:03:40.584Z,2.00
2022-12-11T18:06:45.039Z,1.80
2022-12-11T18:09:47.607Z,2.10
2022-12-11T18:12:49.965Z,2.45
2022-12-11T18:16:05.555Z,2.17
2022-12-11T18:19:08.911Z,1.70
2022-12-11T18:22:14.106Z,1.70
2022-12-11T18:25:20.915Z,2.35
2022-12-11T18:28:23.725Z,2.28
2022-12-11T18:31:26.425Z,2.25
2022-12-11T18:34:29.126Z,1.10
2022-12-11T18:37:31.701Z,1.23
2022-12-11T18:40:37.719Z,2.10
2022-12-11T18:43:43.473Z,1.80
2022-12-11T18:46:49.599Z,2.55
2022-12-11T18:49:52.178Z,2.17
2022-12-11T18:52:55.523Z,2.05
2022-12-11T18:56:00.924Z,1.90
2022-12-11T18:59:04.608Z,1.67
2022-12-11T19:02:07.625Z,1.65
2022-12-11T19:05:11.470Z,1.60
2022-12-11T19:08:16.659Z,0.90
2022-12-11T19:11:26.111Z,1.30
2022-12-11T19:14:34.742Z,1.52
2022-12-11T19:17:38.724Z,1.77
2022-12-11T19:20:53.637Z,2.10
2022-12-11T19:24:00.870Z,1.85
2022-12-11T19:27:07.326Z,2.37
2022-12-11T19:30:13.443Z,1.95
2022-12-11T19:33:17.475Z,2.42
2022-12-11T19:36:23.898Z,2.65
2022-12-11T19:39:29.280Z,2.85
2022-12-11T19:42:32.572Z,2.12
2022-12-11T19:45:35.479Z,2.50
2022-12-11T19:48:41.311Z,2.70
2022-12-11T19:51:44.943Z,2.70
2022-12-11T19:54:48.718Z,2.62
2022-12-11T19:57:51.166Z,2.60
2022-12-11T20:01:25.848Z,2.75
2022-12-11T20:04:29.164Z,2.22
2022-12-11T20:07:33.905Z,1.58
2022-12-11T20:10:37.625Z,2.83
2022-12-11T20:13:45.689Z,2.00
2022-12-11T20:20:11.879Z,3.50
2022-12-11T20:23:17.115Z,2.35
2022-12-11T20:26:23.110Z,2.62
2022-12-11T20:29:28.938Z,1.95
2022-12-11T20:32:31.674Z,2.28
2022-12-11T20:35:34.593Z,2.90
2022-12-11T20:38:42.075Z,2.72
2022-12-11T20:41:45.586Z,3.20
2022-12-11T20:44:49.438Z,2.45
2022-12-11T20:47:55.193Z,2.58
2022-12-11T20:51:04.827Z,2.85
2022-12-11T20:54:08.027Z,3.30
2022-12-11T20:57:11.850Z,3.17
2022-12-11T21:00:15.080Z,1.65
2022-12-11T21:03:17.862Z,2.62
2022-12-11T21:06:30.923Z,2.25
2022-12-11T21:09:46.257Z,1.60
2022-12-11T21:12:49.415Z,2.90
2022-12-11T21:15:56.808Z,2.72
2022-12-11T21:19:10.122Z,2.92
2022-12-11T21:22:14.896Z,2.53
2022-12-11T21:25:22.467Z,3.37
2022-12-11T21:28:29.301Z,1.70
2022-12-11T21:31:35.539Z,3.08
2022-12-11T21:34:46.151Z,2.58
2022-12-11T21:37:49.167Z,2.50
2022-12-11T21:40:53.272Z,2.65
2022-12-11T21:47:21.281Z,3.55
2022-12-11T21:50:23.953Z,2.62
2022-12-11T21:53:26.456Z,2.80
2022-12-11T21:56:32.110Z,2.70
2022-12-11T21:59:37.397Z,2.15
2022-12-11T22:02:41.285Z,2.70
2022-12-11T22:05:44.493Z,2.15
2022-12-11T22:08:49.081Z,3.33
2022-12-11T22:11:56.651Z,2.35
2022-12-11T22:15:00.847Z,3.08
2022-12-11T22:18:04.214Z,2.72
2022-12-11T22:21:08.024Z,2.45
2022-12-11T22:24:14.164Z,3.25
2022-12-11T22:27:23.716Z,2.80
2022-12-11T22:30:37.188Z,2.92
2022-12-11T22:33:42.545Z,2.78
2022-12-11T22:36:45.234Z,2.45
2022-12-11T22:39:47.695Z,3.37
2022-12-11T22:42:50.611Z,2.62
2022-12-11T22:45:53.126Z,3.08
2022-12-11T22:49:00.118Z,2.00
2022-12-11T22:52:08.002Z,2.78
2022-12-11T22:55:11.847Z,2.35
2022-12-11T22:58:21.496Z,2.33
2022-12-11T23:01:29.498Z,3.30
2022-12-11T23:04:32.139Z,1.65
2022-12-11T23:07:37.519Z,2.30
2022-12-11T23:10:44.275Z,2.70
2022-12-11T23:13:47.346Z,3.50
2022-12-11T23:16:49.756Z,2.30
2022-12-11T23:19:55.032Z,2.53
2022-12-11T23:22:59.643Z,2.35
2022-12-11T23:26:03.871Z,2.15
2022-12-11T23:29:09.863Z,1.62
2022-12-11T23:32:13.036Z,2.47
2022-12-11T23:35:16.143Z,2.35
2022-12-11T23:38:18.966Z,1.83
2022-12-11T23:41:22.413Z,1.85
2022-12-11T23:44:25.051Z,2.50
2022-12-11T23:47:27.444Z,1.83
2022-12-11T23:50:32.984Z,1.60
2022-12-11T23:53:35.905Z,1.70
2022-12-11T23:56:38.797Z,1.75
2022-12-11T23:59:41.234Z,1.90
